Loos, Canada
Current Conditions -  °F | °C
As of 11:00 PM on Sunday 21 Dec 2014 (Local Time) from CYXS Reporting Station
Overcast Overcast  
Wind Chill: 25°   Ceiling: 3900
Heat Index: 34°   Visibility: 9mi
Dew Point: 32°   Wind: 12mph
Humidity: 93%   Direction: 190°S
Pressure: 29.75"   Gusts: NA
Location:  53.6°N, 120.72°W
Report Text: CYXS 220700Z AUTO 19010KT 9SM OVC039 01/00 A2975 RMK SLP104
Loading
Personal Weather Stations






























Interactive Weather Map New forecast layout! Learn more

10-Day Weather Forecast

Advertisements
Track Severe Weather on mobile